createdAt,value
2023-03-07T00:01:01.543Z,60.20
2023-03-07T00:03:30.907Z,60.10
2023-03-07T00:06:03.125Z,60.10
2023-03-07T00:08:31.140Z,60.20
2023-03-07T00:11:01.905Z,60.20
2023-03-07T00:13:31.153Z,60.30
2023-03-07T00:16:02.887Z,60.30
2023-03-07T00:18:32.299Z,60.50
2023-03-07T00:21:00.372Z,60.10
2023-03-07T00:23:28.340Z,59.90
2023-03-07T00:26:03.134Z,59.80
2023-03-07T00:28:31.058Z,60.00
2023-03-07T00:31:01.205Z,60.00
2023-03-07T00:33:29.117Z,60.10
2023-03-07T00:36:01.487Z,60.00
2023-03-07T00:38:29.524Z,60.00
2023-03-07T00:40:59.235Z,60.10
2023-03-07T00:43:27.196Z,60.10
2023-03-07T00:45:55.348Z,60.30
2023-03-07T00:48:26.560Z,60.30
2023-03-07T00:50:57.385Z,60.40
2023-03-07T00:53:30.735Z,60.30
2023-03-07T00:56:00.043Z,59.90
2023-03-07T00:58:28.508Z,59.70
2023-03-07T01:00:56.490Z,59.80
2023-03-07T01:03:24.918Z,59.90
2023-03-07T01:05:53.042Z,60.10
2023-03-07T01:08:21.158Z,59.80
2023-03-07T01:10:50.522Z,59.90
2023-03-07T01:13:21.917Z,60.00
2023-03-07T01:15:50.389Z,60.10
2023-03-07T01:18:18.469Z,60.10
2023-03-07T01:20:47.393Z,60.30
2023-03-07T01:23:15.333Z,60.10
2023-03-07T01:25:43.846Z,60.20
2023-03-07T01:28:15.491Z,60.20
2023-03-07T01:30:43.543Z,60.20
2023-03-07T01:33:11.783Z,60.30
2023-03-07T01:35:40.028Z,60.30
2023-03-07T01:38:07.994Z,60.50
2023-03-07T01:40:40.904Z,60.40
2023-03-07T01:43:28.839Z,60.00
2023-03-07T01:46:35.373Z,59.60
2023-03-07T01:49:05.068Z,59.80
2023-03-07T01:51:34.507Z,59.90
2023-03-07T01:54:04.741Z,60.00
2023-03-07T01:56:32.635Z,59.80
2023-03-07T01:59:01.891Z,59.90
2023-03-07T02:01:29.954Z,60.00
2023-03-07T02:03:59.528Z,60.10
2023-03-07T02:06:28.629Z,60.20
2023-03-07T02:08:56.650Z,60.40
2023-03-07T02:11:24.687Z,60.10
2023-03-07T02:13:53.803Z,60.20
2023-03-07T02:16:23.205Z,60.20
2023-03-07T02:18:51.248Z,60.30
2023-03-07T02:21:24.570Z,60.30
2023-03-07T02:23:57.234Z,60.40
2023-03-07T02:26:36.182Z,60.50
2023-03-07T02:29:04.212Z,60.20
2023-03-07T02:31:33.574Z,59.90
2023-03-07T02:34:01.822Z,59.70
2023-03-07T02:36:33.272Z,59.80
2023-03-07T02:39:13.364Z,59.90
2023-03-07T02:41:43.086Z,60.00
2023-03-07T02:44:23.005Z,59.90
2023-03-07T02:46:51.034Z,60.00
2023-03-07T02:49:20.064Z,60.00
2023-03-07T02:51:47.989Z,60.10
2023-03-07T02:54:15.990Z,60.20
2023-03-07T02:56:45.536Z,60.30
2023-03-07T02:59:13.720Z,60.20
2023-03-07T03:01:41.694Z,60.20
2023-03-07T03:04:09.767Z,60.20
2023-03-07T03:06:37.732Z,60.40
2023-03-07T03:09:06.010Z,60.30
2023-03-07T03:11:33.998Z,60.50
2023-03-07T03:14:03.399Z,60.40
2023-03-07T03:16:31.405Z,60.30
2023-03-07T03:19:01.455Z,59.90
2023-03-07T03:21:29.784Z,59.70
2023-03-07T03:23:57.886Z,59.80
2023-03-07T03:26:26.196Z,59.90
2023-03-07T03:28:55.506Z,60.00
2023-03-07T03:31:24.902Z,59.90
2023-03-07T03:33:53.767Z,60.00
2023-03-07T03:36:25.541Z,60.00
2023-03-07T03:38:55.614Z,60.10
2023-03-07T03:41:23.830Z,60.10
2023-03-07T03:43:52.324Z,60.30
2023-03-07T03:46:20.571Z,60.20
2023-03-07T03:48:54.250Z,60.30
2023-03-07T03:51:25.048Z,60.30
2023-03-07T03:53:54.596Z,60.30
2023-03-07T03:56:23.228Z,60.30
2023-03-07T03:58:52.250Z,60.50
2023-03-07T04:01:22.031Z,60.40
2023-03-07T04:03:51.470Z,60.40
2023-03-07T04:06:22.265Z,60.30
2023-03-07T04:08:50.355Z,60.40
2023-03-07T04:11:19.277Z,60.50
2023-03-07T04:13:47.651Z,60.40
2023-03-07T04:16:16.860Z,60.60
2023-03-07T04:18:45.127Z,60.50
2023-03-07T04:21:13.144Z,60.10
2023-03-07T04:23:43.728Z,59.90
2023-03-07T04:26:11.890Z,60.20
2023-03-07T04:28:44.839Z,59.70
2023-03-07T04:31:19.105Z,59.70
2023-03-07T04:33:47.551Z,59.90
2023-03-07T04:36:17.193Z,59.80
2023-03-07T04:38:47.670Z,59.90
2023-03-07T04:41:16.834Z,60.00
2023-03-07T04:43:45.773Z,60.00
2023-03-07T04:46:14.625Z,60.10
2023-03-07T04:48:42.694Z,60.40
2023-03-07T04:51:10.621Z,60.20
2023-03-07T04:53:38.631Z,60.20
2023-03-07T04:56:08.739Z,60.30
2023-03-07T04:58:37.435Z,60.30
2023-03-07T05:01:06.179Z,60.30
2023-03-07T05:03:34.294Z,60.40
2023-03-07T05:06:02.661Z,60.40
2023-03-07T05:08:31.395Z,60.30
2023-03-07T05:10:59.463Z,60.30
2023-03-07T05:13:28.986Z,60.30
2023-03-07T05:15:58.062Z,60.50
2023-03-07T05:18:26.551Z,60.50
2023-03-07T05:20:56.072Z,60.60
2023-03-07T05:23:24.301Z,60.60
2023-03-07T05:25:53.253Z,60.30
2023-03-07T05:28:21.144Z,59.90
2023-03-07T05:30:50.784Z,59.60
2023-03-07T05:33:18.845Z,59.70
2023-03-07T05:35:48.140Z,59.70
2023-03-07T05:38:16.719Z,59.90
2023-03-07T05:40:44.905Z,59.80
2023-03-07T05:43:14.262Z,59.90
2023-03-07T05:45:42.243Z,60.00
2023-03-07T05:48:11.513Z,60.00
2023-03-07T05:50:39.727Z,60.10
2023-03-07T05:53:07.676Z,60.30
2023-03-07T05:55:37.612Z,60.20
2023-03-07T05:58:06.291Z,60.20
2023-03-07T06:00:34.294Z,60.30
2023-03-07T06:03:03.383Z,60.30
2023-03-07T06:05:33.863Z,60.30
2023-03-07T06:08:03.789Z,60.40
2023-03-07T06:10:32.584Z,60.50
2023-03-07T06:13:00.603Z,60.30
2023-03-07T06:15:28.549Z,60.10
2023-03-07T06:18:02.673Z,59.90
2023-03-07T06:20:30.708Z,60.00
2023-03-07T06:23:00.033Z,60.00
2023-03-07T06:25:28.035Z,60.20
2023-03-07T06:27:59.616Z,60.00
2023-03-07T06:30:28.109Z,60.10
2023-03-07T06:32:56.407Z,60.10
2023-03-07T06:35:24.502Z,60.30
2023-03-07T06:37:52.735Z,60.30
2023-03-07T06:40:22.188Z,60.10
2023-03-07T06:42:50.318Z,60.50
2023-03-07T06:45:20.215Z,60.30
2023-03-07T06:47:48.315Z,59.90
2023-03-07T06:50:19.332Z,59.80
2023-03-07T06:52:51.952Z,59.80
2023-03-07T06:55:21.627Z,60.00
2023-03-07T06:57:49.974Z,60.00
2023-03-07T07:00:19.472Z,59.90
2023-03-07T07:02:47.512Z,59.90
2023-03-07T07:05:16.134Z,60.10
2023-03-07T07:07:45.730Z,60.10
2023-03-07T07:10:14.081Z,60.30
2023-03-07T07:12:43.494Z,60.20
2023-03-07T07:15:14.523Z,60.50
2023-03-07T07:17:42.434Z,60.20
2023-03-07T07:20:12.422Z,59.80
2023-03-07T07:22:42.264Z,59.90
2023-03-07T07:25:11.206Z,60.00
2023-03-07T07:27:39.304Z,60.00
2023-03-07T07:30:10.378Z,60.10
2023-03-07T07:32:38.445Z,59.90
2023-03-07T07:35:08.099Z,60.00
2023-03-07T07:37:37.478Z,60.20
2023-03-07T07:40:06.238Z,60.20
2023-03-07T07:42:34.494Z,60.20
2023-03-07T07:45:26.633Z,60.30
2023-03-07T07:47:54.871Z,60.40
2023-03-07T07:50:23.880Z,60.30
2023-03-07T07:52:53.565Z,59.90
2023-03-07T07:55:22.062Z,59.50
2023-03-07T07:57:50.465Z,59.60
2023-03-07T08:00:21.256Z,59.80
2023-03-07T08:02:50.920Z,59.90
2023-03-07T08:05:19.935Z,59.80
2023-03-07T08:07:47.912Z,59.80
2023-03-07T08:10:16.452Z,60.00
2023-03-07T08:12:44.641Z,60.00
2023-03-07T08:15:12.900Z,60.10
2023-03-07T08:17:40.799Z,60.10
2023-03-07T08:20:11.548Z,60.30
2023-03-07T08:22:39.719Z,60.00
2023-03-07T08:25:08.455Z,60.20
2023-03-07T08:27:36.450Z,60.20
2023-03-07T08:30:04.835Z,60.30
2023-03-07T08:32:32.810Z,60.30
2023-03-07T08:35:00.781Z,60.40
2023-03-07T08:37:30.071Z,60.50
2023-03-07T08:39:58.043Z,60.20
2023-03-07T08:42:26.071Z,59.70
2023-03-07T08:44:54.067Z,59.60
2023-03-07T08:47:22.029Z,59.70
2023-03-07T08:49:49.938Z,59.80
2023-03-07T08:52:17.910Z,60.00
2023-03-07T08:54:47.218Z,59.70
2023-03-07T08:57:15.210Z,59.90
2023-03-07T08:59:43.144Z,59.90
2023-03-07T09:02:11.413Z,60.00
2023-03-07T09:04:39.681Z,60.80
2023-03-07T09:07:07.617Z,60.10
2023-03-07T09:09:35.571Z,60.00
2023-03-07T09:12:05.485Z,60.00
2023-03-07T09:14:35.442Z,60.10
2023-03-07T09:17:04.565Z,60.20
2023-03-07T09:19:32.659Z,60.30
2023-03-07T09:22:00.639Z,60.20
2023-03-07T09:24:28.514Z,60.40
2023-03-07T09:26:56.485Z,60.20
2023-03-07T09:29:25.914Z,60.00
2023-03-07T09:31:54.255Z,59.50
2023-03-07T09:34:22.239Z,59.60
2023-03-07T09:36:51.491Z,59.80
2023-03-07T09:39:19.575Z,59.80
2023-03-07T09:41:55.763Z,59.90
2023-03-07T09:44:34.848Z,59.80
2023-03-07T09:47:50.087Z,60.00
2023-03-07T09:50:20.907Z,60.00
2023-03-07T09:52:49.052Z,60.20
2023-03-07T09:55:18.532Z,60.10
2023-03-07T09:57:50.168Z,60.20
2023-03-07T10:00:21.728Z,60.00
2023-03-07T10:02:51.047Z,60.20
2023-03-07T10:05:28.207Z,60.20
2023-03-07T10:07:56.175Z,60.20
2023-03-07T10:10:24.999Z,60.30
2023-03-07T10:13:08.544Z,60.40
2023-03-07T10:15:45.362Z,60.50
2023-03-07T10:18:37.873Z,60.20
2023-03-07T10:21:13.024Z,59.80
2023-03-07T10:24:12.891Z,59.80
2023-03-07T10:26:42.312Z,59.80
2023-03-07T10:29:14.920Z,60.10
2023-03-07T10:31:48.167Z,59.90
2023-03-07T10:34:26.607Z,60.00
2023-03-07T10:37:08.136Z,60.10
2023-03-07T10:39:40.461Z,60.10
2023-03-07T10:42:09.451Z,60.20
2023-03-07T10:44:37.360Z,60.30
2023-03-07T10:47:07.015Z,60.20
2023-03-07T10:49:39.900Z,60.30
2023-03-07T10:52:20.837Z,60.30
2023-03-07T10:54:48.808Z,60.30
2023-03-07T10:57:17.092Z,60.30
2023-03-07T10:59:47.444Z,60.40
2023-03-07T11:02:31.749Z,60.60
2023-03-07T11:04:59.858Z,60.60
2023-03-07T11:07:28.939Z,60.10
2023-03-07T11:09:59.189Z,59.90
2023-03-07T11:12:29.115Z,60.10
2023-03-07T11:14:59.008Z,60.10
2023-03-07T11:17:30.558Z,60.10
2023-03-07T11:19:59.152Z,60.20
2023-03-07T11:22:29.103Z,60.10
2023-03-07T11:25:00.053Z,60.30
2023-03-07T11:27:36.298Z,60.30
2023-03-07T11:30:28.790Z,60.40
2023-03-07T11:33:11.850Z,60.40
2023-03-07T11:35:58.332Z,60.60
2023-03-07T11:38:42.583Z,60.50
2023-03-07T11:41:12.415Z,60.10
2023-03-07T11:43:51.612Z,59.90
2023-03-07T11:46:23.248Z,60.00
2023-03-07T11:48:58.553Z,60.10
2023-03-07T11:51:33.630Z,60.20
2023-03-07T11:54:04.699Z,60.10
2023-03-07T11:56:34.545Z,60.00
2023-03-07T11:59:38.314Z,60.20
2023-03-07T12:02:07.618Z,60.40
2023-03-07T12:04:59.358Z,60.40
2023-03-07T12:08:06.888Z,60.40
2023-03-07T12:10:41.930Z,60.60
2023-03-07T12:13:15.949Z,60.20
2023-03-07T12:15:47.295Z,59.90
2023-03-07T12:18:28.016Z,60.00
2023-03-07T12:21:05.434Z,60.00
2023-03-07T12:23:37.849Z,60.00
2023-03-07T12:26:07.996Z,60.00
2023-03-07T12:28:40.416Z,59.90
2023-03-07T12:31:09.947Z,60.10
2023-03-07T12:33:47.723Z,60.30
2023-03-07T12:36:22.145Z,60.30
2023-03-07T12:38:51.847Z,60.10
2023-03-07T12:41:24.637Z,60.00
2023-03-07T12:43:54.648Z,59.90
2023-03-07T12:46:25.806Z,60.00
2023-03-07T12:48:55.134Z,60.00
2023-03-07T12:51:26.912Z,60.00
2023-03-07T12:53:56.680Z,60.30
2023-03-07T12:56:27.465Z,60.40
2023-03-07T12:58:57.372Z,60.60
2023-03-07T13:01:28.022Z,60.30
2023-03-07T13:03:58.164Z,59.80
2023-03-07T13:06:27.594Z,59.70
2023-03-07T13:08:56.585Z,59.70
2023-03-07T13:11:26.063Z,59.80
2023-03-07T13:13:56.373Z,60.00
2023-03-07T13:16:42.614Z,59.70
2023-03-07T13:19:49.113Z,59.90
2023-03-07T13:22:59.970Z,60.00
2023-03-07T13:25:48.745Z,60.10
2023-03-07T13:28:53.007Z,60.20
2023-03-07T13:31:44.517Z,60.10
2023-03-07T13:34:51.199Z,60.20
2023-03-07T13:37:53.380Z,60.30
2023-03-07T13:40:54.115Z,60.50
2023-03-07T13:43:58.069Z,60.60
2023-03-07T13:46:51.810Z,60.50
2023-03-07T13:49:45.384Z,60.50
2023-03-07T13:52:34.676Z,60.60
2023-03-07T13:55:03.558Z,60.60
2023-03-07T13:57:36.393Z,60.60
2023-03-07T14:00:16.443Z,60.60
2023-03-07T14:02:44.407Z,60.70
2023-03-07T14:05:12.801Z,60.60
2023-03-07T14:07:41.254Z,60.20
2023-03-07T14:10:21.872Z,59.80
2023-03-07T14:13:18.429Z,59.80
2023-03-07T14:15:53.878Z,60.00
2023-03-07T14:18:28.221Z,60.10
2023-03-07T14:20:58.846Z,60.00
2023-03-07T14:23:48.259Z,60.00
2023-03-07T14:26:17.306Z,60.20
2023-03-07T14:28:49.610Z,60.30
2023-03-07T14:31:25.158Z,60.40
2023-03-07T14:33:53.379Z,60.60
2023-03-07T14:36:22.152Z,60.40
2023-03-07T14:38:50.435Z,60.50
2023-03-07T14:41:36.785Z,60.50
2023-03-07T14:44:18.617Z,60.60
2023-03-07T14:46:54.352Z,60.60
2023-03-07T14:49:26.203Z,60.80
2023-03-07T14:51:54.215Z,60.60
2023-03-07T14:54:25.146Z,60.70
2023-03-07T14:56:53.993Z,60.70
2023-03-07T14:59:29.048Z,60.70
2023-03-07T15:01:59.963Z,60.70
2023-03-07T15:04:29.085Z,60.80
2023-03-07T15:06:57.904Z,60.90
2023-03-07T15:09:25.972Z,60.70
2023-03-07T15:11:57.427Z,60.50
2023-03-07T15:14:28.882Z,60.00
2023-03-07T15:16:59.525Z,59.90
2023-03-07T15:19:30.838Z,59.90
2023-03-07T15:22:00.272Z,60.10
2023-03-07T15:24:30.330Z,60.10
2023-03-07T15:26:59.651Z,60.10
2023-03-07T15:29:32.729Z,60.20
2023-03-07T15:32:03.696Z,60.30
2023-03-07T15:34:35.893Z,61.20
2023-03-07T15:37:22.486Z,60.50
2023-03-07T15:39:57.374Z,60.60
2023-03-07T15:42:25.494Z,60.50
2023-03-07T15:44:56.860Z,60.60
2023-03-07T15:47:26.785Z,60.60
2023-03-07T15:49:55.391Z,60.70
2023-03-07T15:52:28.246Z,60.80
2023-03-07T15:54:57.064Z,60.80
2023-03-07T15:57:25.807Z,60.70
2023-03-07T15:59:56.787Z,60.70
2023-03-07T16:02:46.116Z,60.80
2023-03-07T16:05:37.154Z,60.80
2023-03-07T16:08:10.474Z,60.80
2023-03-07T16:10:48.769Z,60.80
2023-03-07T16:13:17.927Z,60.90
2023-03-07T16:15:45.853Z,60.80
2023-03-07T16:18:19.946Z,60.50
2023-03-07T16:20:48.158Z,60.10
2023-03-07T16:23:16.092Z,60.00
2023-03-07T16:25:44.116Z,60.10
2023-03-07T16:28:12.063Z,60.20
2023-03-07T16:30:40.044Z,60.20
2023-03-07T16:33:10.866Z,60.20
2023-03-07T16:35:40.222Z,60.30
2023-03-07T16:38:08.309Z,60.30
2023-03-07T16:40:37.078Z,60.50
2023-03-07T16:43:06.437Z,60.50
2023-03-07T16:45:34.383Z,60.70
2023-03-07T16:48:03.472Z,60.60
2023-03-07T16:50:33.287Z,60.60
2023-03-07T16:53:02.800Z,60.60
2023-03-07T16:55:34.209Z,60.60
2023-03-07T16:58:02.962Z,60.80
2023-03-07T17:00:31.255Z,60.80
2023-03-07T17:03:02.016Z,60.70
2023-03-07T17:05:30.602Z,60.70
2023-03-07T17:07:59.067Z,60.80
2023-03-07T17:10:28.464Z,61.50
2023-03-07T17:12:57.273Z,60.90
2023-03-07T17:15:30.284Z,60.90
2023-03-07T17:17:58.410Z,60.90
2023-03-07T17:20:26.372Z,60.90
2023-03-07T17:22:54.699Z,60.60
2023-03-07T17:25:22.740Z,60.20
2023-03-07T17:27:57.956Z,60.00
2023-03-07T17:30:27.018Z,59.90
2023-03-07T17:32:55.064Z,60.10
2023-03-07T17:35:23.109Z,60.30
2023-03-07T17:37:51.456Z,60.20
2023-03-07T17:40:19.483Z,60.30
2023-03-07T17:42:49.442Z,60.40
2023-03-07T17:45:18.806Z,60.60
2023-03-07T17:47:47.698Z,60.60
2023-03-07T17:50:15.831Z,60.80
2023-03-07T17:52:43.867Z,60.60
2023-03-07T17:55:12.134Z,60.70
2023-03-07T17:57:40.094Z,60.80
2023-03-07T18:00:12.670Z,60.80
2023-03-07T18:02:43.648Z,60.90
2023-03-07T18:05:12.877Z,60.90
2023-03-07T18:07:41.157Z,60.90
2023-03-07T18:10:10.318Z,60.70
2023-03-07T18:12:39.473Z,60.70
2023-03-07T18:15:08.555Z,60.80
2023-03-07T18:17:47.424Z,60.80
2023-03-07T18:20:19.914Z,60.80
2023-03-07T18:22:48.024Z,60.90
2023-03-07T18:25:16.693Z,60.90
2023-03-07T18:27:44.684Z,60.60
2023-03-07T18:30:15.885Z,60.20
2023-03-07T18:32:44.017Z,60.00
2023-03-07T18:35:12.718Z,60.10
2023-03-07T18:37:45.394Z,60.30
2023-03-07T18:40:14.076Z,60.50
2023-03-07T18:42:44.614Z,60.30
2023-03-07T18:45:13.104Z,60.30
2023-03-07T18:47:41.067Z,60.50
2023-03-07T18:50:10.936Z,60.60
2023-03-07T18:52:38.937Z,60.70
2023-03-07T18:55:09.220Z,60.70
2023-03-07T18:57:37.137Z,60.60
2023-03-07T19:00:06.349Z,60.70
2023-03-07T19:02:34.305Z,60.70
2023-03-07T19:05:02.382Z,60.80
2023-03-07T19:07:31.303Z,60.90
2023-03-07T19:09:59.276Z,60.90
2023-03-07T19:12:28.561Z,61.00
2023-03-07T19:14:56.501Z,60.90
2023-03-07T19:17:25.310Z,60.70
2023-03-07T19:19:58.995Z,60.30
2023-03-07T19:22:29.400Z,60.30
2023-03-07T19:24:59.617Z,60.40
2023-03-07T19:27:29.059Z,60.50
2023-03-07T19:29:58.064Z,60.40
2023-03-07T19:32:27.115Z,60.30
2023-03-07T19:34:56.024Z,60.50
2023-03-07T19:37:24.225Z,60.60
2023-03-07T19:39:53.034Z,60.70
2023-03-07T19:42:21.023Z,60.80
2023-03-07T19:44:50.348Z,60.70
2023-03-07T19:47:18.257Z,60.60
2023-03-07T19:49:47.795Z,60.70
2023-03-07T19:52:16.384Z,60.70
2023-03-07T19:54:45.342Z,60.70
2023-03-07T19:57:14.979Z,60.80
2023-03-07T19:59:43.080Z,60.80
2023-03-07T20:02:15.609Z,60.90
2023-03-07T20:04:43.586Z,60.60
2023-03-07T20:07:11.590Z,60.30
2023-03-07T20:09:39.569Z,60.10
2023-03-07T20:12:09.982Z,60.00
2023-03-07T20:14:42.629Z,60.10
2023-03-07T20:17:12.370Z,60.40
2023-03-07T20:19:40.368Z,60.30
2023-03-07T20:22:08.280Z,60.40
2023-03-07T20:24:36.985Z,60.40
2023-03-07T20:27:05.069Z,60.50
2023-03-07T20:29:33.028Z,60.60
2023-03-07T20:32:01.240Z,60.60
2023-03-07T20:34:30.556Z,60.60
2023-03-07T20:36:58.607Z,60.60
2023-03-07T20:39:26.767Z,60.70
2023-03-07T20:41:54.686Z,60.70
2023-03-07T20:44:22.611Z,60.80
2023-03-07T20:46:50.885Z,60.80
2023-03-07T20:49:18.862Z,60.90
2023-03-07T20:51:48.717Z,60.90
2023-03-07T20:54:17.240Z,60.50
2023-03-07T20:56:47.500Z,60.20
2023-03-07T20:59:16.289Z,60.10
2023-03-07T21:01:44.401Z,60.30
2023-03-07T21:04:13.402Z,60.40
2023-03-07T21:06:42.176Z,60.30
2023-03-07T21:09:12.073Z,60.30
2023-03-07T21:11:40.975Z,60.40
2023-03-07T21:14:09.135Z,60.50
2023-03-07T21:16:37.188Z,60.60
2023-03-07T21:19:06.292Z,60.60
2023-03-07T21:21:34.803Z,60.70
2023-03-07T21:24:02.891Z,60.60
2023-03-07T21:26:33.008Z,60.70
2023-03-07T21:29:00.960Z,60.70
2023-03-07T21:31:29.740Z,60.80
2023-03-07T21:33:58.531Z,60.90
2023-03-07T21:36:27.544Z,61.00
2023-03-07T21:38:55.828Z,61.00
2023-03-07T21:41:24.966Z,60.70
2023-03-07T21:43:54.387Z,60.40
2023-03-07T21:46:22.445Z,60.40
2023-03-07T21:48:51.632Z,60.30
2023-03-07T21:51:19.805Z,60.50
2023-03-07T21:53:47.763Z,60.60
2023-03-07T21:56:18.714Z,60.50
2023-03-07T21:58:48.510Z,60.60
2023-03-07T22:01:19.093Z,60.60
2023-03-07T22:03:47.254Z,60.60
2023-03-07T22:06:16.018Z,60.70
2023-03-07T22:08:44.032Z,60.90
2023-03-07T22:11:12.526Z,60.80
2023-03-07T22:13:41.265Z,60.80
2023-03-07T22:16:11.088Z,60.90
2023-03-07T22:18:40.404Z,60.90
2023-03-07T22:21:09.223Z,60.90
2023-03-07T22:23:37.367Z,60.90
2023-03-07T22:26:05.988Z,61.00
2023-03-07T22:28:34.134Z,61.00
2023-03-07T22:31:04.499Z,60.70
2023-03-07T22:33:32.565Z,60.40
2023-03-07T22:36:02.603Z,60.30
2023-03-07T22:38:30.570Z,60.30
2023-03-07T22:41:01.943Z,60.50
2023-03-07T22:43:33.912Z,60.50
2023-03-07T22:46:02.072Z,60.50
2023-03-07T22:48:30.088Z,60.60
2023-03-07T22:50:59.295Z,60.80
2023-03-07T22:53:31.025Z,60.70
2023-03-07T22:56:00.155Z,60.80
2023-03-07T22:58:28.193Z,60.90
2023-03-07T23:00:56.214Z,60.80
2023-03-07T23:03:24.341Z,60.80
2023-03-07T23:05:52.467Z,60.90
2023-03-07T23:08:20.647Z,60.90
2023-03-07T23:10:49.921Z,60.90
2023-03-07T23:13:17.849Z,61.00
2023-03-07T23:15:45.779Z,61.10
2023-03-07T23:18:13.877Z,60.90
2023-03-07T23:20:41.818Z,60.40
2023-03-07T23:23:09.747Z,60.20
2023-03-07T23:25:41.132Z,60.10
2023-03-07T23:28:10.407Z,60.30
2023-03-07T23:30:38.547Z,60.40
2023-03-07T23:33:09.335Z,60.30
2023-03-07T23:35:37.384Z,60.40
2023-03-07T23:38:05.433Z,60.50
2023-03-07T23:40:33.498Z,60.60
2023-03-07T23:43:01.407Z,60.70
2023-03-07T23:45:32.652Z,60.90
2023-03-07T23:48:00.567Z,60.70
2023-03-07T23:50:28.935Z,60.80
2023-03-07T23:52:56.880Z,60.80
2023-03-07T23:55:26.950Z,60.80
2023-03-07T23:57:54.825Z,60.90
